Time;durP1;ratioP1;P1;durP2;ratioP2;P2;SDS_P1;SDS_P2;PMS_P1;PMS_P2;Temp;Humidity;BMP_temperature;BMP_pressure;BME280_temperature;BME280_humidity;BME280_pressure;Samples;Min_cycle;Max_cycle;Signal;HPM_P1;HPM_P2
2022/09/10 00:01:19;;;;;;;11.57;8.98;;;14.70;99.90;;;;;;5095151;28;20097;-67
2022/09/10 00:03:47;;;;;;;13.82;9.10;;;14.70;99.90;;;;;;5097007;28;20101;-69
2022/09/10 00:06:14;;;;;;;14.13;9.32;;;14.60;99.90;;;;;;5110062;28;20521;-67
2022/09/10 00:08:41;;;;;;;11.70;8.88;;;14.60;99.90;;;;;;5101244;28;20096;-67
2022/09/10 00:11:09;;;;;;;11.10;9.15;;;14.60;99.90;;;;;;5103589;28;20393;-69
2022/09/10 00:13:38;;;;;;;16.58;10.15;;;14.60;99.90;;;;;;5091433;28;20051;-67
2022/09/10 00:16:07;;;;;;;11.98;10.20;;;14.60;99.90;;;;;;5086980;28;20048;-69
2022/09/10 00:18:34;;;;;;;12.15;9.48;;;14.50;99.90;;;;;;5086932;28;20047;-67
2022/09/10 00:21:05;;;;;;;12.95;9.82;;;14.50;99.90;;;;;;5096408;28;20097;-67
2022/09/10 00:23:32;;;;;;;13.23;10.70;;;14.50;99.90;;;;;;5073540;28;20081;-67
2022/09/10 00:25:59;;;;;;;19.42;11.93;;;14.40;99.90;;;;;;5091523;28;20048;-67
2022/09/10 00:28:26;;;;;;;15.05;10.70;;;14.40;99.90;;;;;;5091333;28;20628;-67
2022/09/10 00:30:53;;;;;;;14.40;11.75;;;14.40;99.90;;;;;;5083131;28;20040;-67
2022/09/10 00:33:21;;;;;;;17.77;12.30;;;14.40;99.90;;;;;;5091471;28;20117;-67
2022/09/10 00:35:47;;;;;;;15.23;10.90;;;14.40;99.90;;;;;;5091425;28;20395;-68
2022/09/10 00:38:17;;;;;;;19.33;12.48;;;14.40;99.90;;;;;;5093760;28;20067;-69
2022/09/10 00:40:44;;;;;;;15.60;12.10;;;14.40;99.90;;;;;;5082922;28;20545;-69
2022/09/10 00:43:12;;;;;;;19.23;11.82;;;14.30;99.90;;;;;;5107478;28;20053;-69
2022/09/10 00:45:39;;;;;;;14.57;12.53;;;14.40;99.90;;;;;;5100425;28;20111;-69
2022/09/10 00:48:15;;;;;;;18.23;12.45;;;14.30;99.90;;;;;;5103751;28;20046;-68
2022/09/10 00:50:43;;;;;;;14.77;11.38;;;14.30;99.90;;;;;;5090450;28;20060;-69
2022/09/10 00:53:15;;;;;;;16.50;12.85;;;14.30;99.90;;;;;;5077095;28;20044;-70
2022/09/10 00:55:44;;;;;;;17.45;12.68;;;14.30;99.90;;;;;;5077282;28;20050;-69
2022/09/10 00:58:11;;;;;;;14.35;11.85;;;14.30;99.90;;;;;;5088687;28;20044;-69
2022/09/10 01:00:40;;;;;;;15.27;11.68;;;14.30;99.90;;;;;;5093472;28;20102;-69
2022/09/10 01:03:10;;;;;;;16.13;11.33;;;14.30;99.90;;;;;;5092211;28;20384;-69
2022/09/10 01:05:37;;;;;;;15.32;11.00;;;14.30;99.90;;;;;;5071439;28;20289;-69
2022/09/10 01:08:04;;;;;;;14.05;10.98;;;14.30;99.90;;;;;;5085800;28;20050;-69
2022/09/10 01:10:35;;;;;;;13.88;11.35;;;14.30;99.90;;;;;;5107487;28;20043;-69
2022/09/10 01:13:18;;;;;;;14.77;11.40;;;14.30;99.90;;;;;;5098578;28;20039;-69
2022/09/10 01:16:01;;;;;;;14.60;11.80;;;14.30;99.90;;;;;;5095056;28;20105;-69
2022/09/10 01:18:59;;;;;;;17.10;12.13;;;14.30;99.90;;;;;;5101415;28;20531;-69
2022/09/10 01:21:45;;;;;;;14.73;11.40;;;14.20;99.90;;;;;;5106622;28;20067;-69
2022/09/10 01:24:18;;;;;;;11.50;10.27;;;14.20;99.90;;;;;;5106321;28;20048;-69
2022/09/10 01:27:05;;;;;;;14.27;11.82;;;14.20;99.90;;;;;;5112087;28;20047;-69
2022/09/10 01:29:51;;;;;;;14.18;12.23;;;14.20;99.90;;;;;;5107054;28;20047;-69
2022/09/10 01:32:25;;;;;;;16.70;12.13;;;14.20;99.90;;;;;;5088305;28;20072;-68
2022/09/10 01:35:14;;;;;;;13.82;11.60;;;14.20;99.90;;;;;;5100270;28;20051;-69
2022/09/10 01:37:53;;;;;;;16.05;10.88;;;14.10;99.90;;;;;;5101155;28;20040;-69
2022/09/10 01:40:27;;;;;;;14.23;11.00;;;14.10;99.90;;;;;;5091650;28;20509;-69
2022/09/10 01:43:08;;;;;;;12.90;11.18;;;14.10;99.90;;;;;;5079497;28;20461;-69
2022/09/10 01:45:39;;;;;;;14.65;10.63;;;14.10;99.90;;;;;;5091147;28;20086;-68
2022/09/10 01:48:21;;;;;;;14.05;10.60;;;14.00;99.90;;;;;;5102503;28;20044;-69
2022/09/10 01:51:03;;;;;;;18.85;11.35;;;14.00;99.90;;;;;;5104758;28;20101;-69
2022/09/10 01:54:00;;;;;;;14.60;11.30;;;14.00;99.90;;;;;;5085888;28;20101;-69
2022/09/10 01:56:45;;;;;;;16.42;11.27;;;14.00;99.90;;;;;;5093286;28;20044;-69
2022/09/10 01:59:37;;;;;;;15.25;11.63;;;14.00;99.90;;;;;;5102098;28;20117;-69
2022/09/10 02:02:19;;;;;;;14.02;10.90;;;14.00;99.90;;;;;;5096722;28;20055;-69
2022/09/10 02:04:47;;;;;;;15.65;11.60;;;14.00;99.90;;;;;;5096898;28;20052;-69
2022/09/10 02:07:14;;;;;;;13.68;11.27;;;14.00;99.90;;;;;;5069118;28;20048;-69
2022/09/10 02:09:40;;;;;;;14.38;11.27;;;14.00;99.90;;;;;;5097627;28;20051;-69
2022/09/10 02:12:08;;;;;;;15.57;12.55;;;13.90;99.90;;;;;;5081075;28;20093;-69
2022/09/10 02:14:35;;;;;;;14.50;12.10;;;14.00;99.90;;;;;;5078224;28;20048;-69
2022/09/10 02:17:02;;;;;;;15.43;11.13;;;13.90;99.90;;;;;;5110590;28;20046;-69
2022/09/10 02:19:29;;;;;;;17.73;13.20;;;13.90;99.90;;;;;;5114530;28;20044;-69
2022/09/10 02:21:56;;;;;;;12.93;10.98;;;13.90;99.90;;;;;;5113917;28;20138;-69
2022/09/10 02:24:23;;;;;;;12.48;11.25;;;13.80;99.90;;;;;;5100679;28;20051;-69
2022/09/10 02:26:50;;;;;;;13.02;11.13;;;13.80;99.90;;;;;;5097990;28;20483;-69
2022/09/10 02:29:18;;;;;;;15.27;11.65;;;13.80;99.90;;;;;;5097941;28;20088;-69
2022/09/10 02:31:46;;;;;;;12.43;10.80;;;13.80;99.90;;;;;;5096387;28;20047;-69
2022/09/10 02:34:14;;;;;;;13.02;10.93;;;13.80;99.90;;;;;;5081030;28;20048;-69
2022/09/10 02:36:42;;;;;;;13.95;11.95;;;13.70;99.90;;;;;;5113618;28;20086;-69
2022/09/10 02:39:09;;;;;;;14.05;11.85;;;13.70;99.90;;;;;;5082988;28;20487;-69
2022/09/10 02:41:38;;;;;;;13.55;10.63;;;13.70;99.90;;;;;;5087819;28;20089;-69
2022/09/10 02:44:05;;;;;;;14.75;11.70;;;13.70;99.90;;;;;;5098304;28;20040;-69
2022/09/10 02:46:32;;;;;;;12.43;10.25;;;13.60;99.90;;;;;;5108804;28;20120;-69
2022/09/10 02:48:59;;;;;;;13.73;10.90;;;13.60;99.90;;;;;;5109852;28;20040;-69
2022/09/10 02:51:26;;;;;;;15.13;11.55;;;13.60;99.90;;;;;;5094900;28;20071;-69
2022/09/10 02:53:54;;;;;;;13.25;11.48;;;13.60;99.90;;;;;;5103539;28;20043;-69
2022/09/10 02:56:22;;;;;;;12.32;11.02;;;13.60;99.90;;;;;;5110302;28;20403;-69
2022/09/10 02:58:49;;;;;;;14.98;11.20;;;13.50;99.90;;;;;;5102648;28;20477;-69
2022/09/10 03:01:18;;;;;;;14.05;12.05;;;13.50;99.90;;;;;;5095006;28;20947;-69
2022/09/10 03:03:49;;;;;;;16.10;12.47;;;13.60;99.90;;;;;;5083202;28;20127;-69
2022/09/10 03:06:16;;;;;;;17.63;13.68;;;13.60;99.90;;;;;;5096369;28;20097;-69
2022/09/10 03:08:43;;;;;;;20.15;14.25;;;13.70;99.90;;;;;;5097677;28;20445;-69
2022/09/10 03:11:14;;;;;;;13.82;12.13;;;13.80;99.90;;;;;;5103981;28;20078;-69
2022/09/10 03:13:42;;;;;;;19.42;13.70;;;13.80;99.90;;;;;;5096321;28;20508;-69
2022/09/10 03:16:09;;;;;;;15.30;12.10;;;13.90;99.90;;;;;;5106423;28;20102;-69
2022/09/10 03:18:36;;;;;;;18.73;14.05;;;14.00;99.90;;;;;;5111445;28;20039;-68
2022/09/10 03:21:14;;;;;;;17.73;14.18;;;14.00;99.90;;;;;;5099078;28;20054;-68
2022/09/10 03:23:41;;;;;;;19.52;14.00;;;14.10;99.90;;;;;;5111584;28;20081;-69
2022/09/10 03:26:09;;;;;;;15.55;13.90;;;14.10;99.90;;;;;;5088656;28;20044;-69
2022/09/10 03:28:36;;;;;;;17.08;14.02;;;14.10;99.90;;;;;;5077673;28;20056;-69
2022/09/10 03:31:03;;;;;;;19.98;15.07;;;14.20;99.90;;;;;;5095138;28;20043;-69
2022/09/10 03:33:30;;;;;;;18.95;15.27;;;14.20;99.90;;;;;;5093080;28;20075;-69
2022/09/10 03:35:57;;;;;;;18.00;15.52;;;14.20;99.90;;;;;;5090687;28;20520;-69
2022/09/10 03:38:26;;;;;;;22.83;15.02;;;14.30;99.90;;;;;;5076053;28;20093;-69
2022/09/10 03:40:53;;;;;;;20.30;15.88;;;14.30;99.90;;;;;;5094105;28;20484;-69
2022/09/10 03:43:21;;;;;;;16.05;14.35;;;14.40;99.90;;;;;;5096701;28;20048;-69
2022/09/10 03:45:48;;;;;;;20.77;15.60;;;14.40;99.90;;;;;;5100993;28;20044;-69
2022/09/10 03:48:16;;;;;;;18.08;14.60;;;14.40;99.90;;;;;;5092782;28;20040;-68
2022/09/10 03:50:43;;;;;;;17.17;14.93;;;14.40;99.90;;;;;;5081181;28;20050;-69
2022/09/10 03:53:11;;;;;;;17.75;15.40;;;14.40;99.90;;;;;;5088974;28;20604;-69
2022/09/10 03:55:38;;;;;;;103.80;88.43;;;14.40;99.90;;;;;;5112577;28;20586;-70
2022/09/10 03:58:05;;;;;;;68.05;54.17;;;14.40;99.90;;;;;;5091603;28;20091;-72
2022/09/10 04:00:32;;;;;;;36.33;31.30;;;14.40;99.90;;;;;;5098734;28;20052;-72
2022/09/10 04:02:59;;;;;;;23.80;19.42;;;14.50;99.90;;;;;;5111273;27;20128;-72
2022/09/10 04:05:27;;;;;;;20.15;16.55;;;14.50;99.90;;;;;;5092979;28;20128;-72
2022/09/10 04:07:57;;;;;;;18.48;14.18;;;14.50;99.90;;;;;;5099959;28;20120;-71
2022/09/10 04:10:25;;;;;;;19.90;16.67;;;14.50;99.90;;;;;;5113559;28;20153;-70
2022/09/10 04:12:55;;;;;;;17.70;15.25;;;14.50;99.90;;;;;;5111131;28;20039;-71
2022/09/10 04:15:22;;;;;;;16.58;14.02;;;14.50;99.90;;;;;;5081916;28;20063;-72
2022/09/10 04:17:53;;;;;;;18.80;13.80;;;14.50;99.90;;;;;;5103964;28;20047;-71
2022/09/10 04:20:21;;;;;;;18.33;13.13;;;14.50;99.90;;;;;;5113329;28;20074;-71
2022/09/10 04:22:50;;;;;;;16.77;14.82;;;14.60;99.90;;;;;;5079087;28;20113;-71
2022/09/10 04:25:17;;;;;;;16.47;14.67;;;14.60;99.90;;;;;;5094705;28;20097;-71
2022/09/10 04:27:45;;;;;;;16.48;14.73;;;14.60;99.90;;;;;;5080474;28;20300;-72
2022/09/10 04:30:12;;;;;;;20.55;15.30;;;14.60;99.90;;;;;;5103738;28;20475;-71
2022/09/10 04:32:39;;;;;;;18.77;15.77;;;14.60;99.90;;;;;;5092080;28;20035;-71
2022/09/10 04:35:06;;;;;;;21.92;16.55;;;14.60;99.90;;;;;;5094535;28;20056;-72
2022/09/10 04:37:33;;;;;;;21.73;15.02;;;14.60;99.90;;;;;;5092424;28;20048;-71
2022/09/10 04:40:00;;;;;;;19.38;15.07;;;14.60;99.90;;;;;;5091746;28;20556;-70
2022/09/10 04:42:30;;;;;;;21.20;15.90;;;14.60;99.90;;;;;;5093745;28;20388;-71
2022/09/10 04:44:58;;;;;;;19.95;15.10;;;14.60;99.90;;;;;;5082335;28;20101;-72
2022/09/10 04:47:24;;;;;;;20.05;13.55;;;14.60;99.90;;;;;;5098786;28;20556;-71
2022/09/10 04:49:51;;;;;;;18.33;14.35;;;14.60;99.90;;;;;;5109958;28;20044;-71
2022/09/10 04:52:21;;;;;;;19.55;14.57;;;14.60;99.90;;;;;;5093295;28;20078;-72
2022/09/10 04:54:48;;;;;;;20.10;14.27;;;14.60;99.90;;;;;;5107241;28;20453;-72
2022/09/10 04:57:15;;;;;;;18.65;13.98;;;14.60;99.90;;;;;;5099303;28;20095;-72
2022/09/10 04:59:42;;;;;;;17.00;14.52;;;14.60;99.90;;;;;;5094031;28;20105;-72
2022/09/10 05:02:09;;;;;;;17.88;14.52;;;14.60;99.90;;;;;;5109505;28;20400;-71
2022/09/10 05:04:38;;;;;;;17.45;15.27;;;14.60;99.90;;;;;;5104027;28;20048;-71
2022/09/10 05:07:05;;;;;;;18.48;14.15;;;14.60;99.90;;;;;;5106566;28;20055;-71
2022/09/10 05:09:32;;;;;;;18.08;13.73;;;14.50;99.90;;;;;;5101281;28;20109;-71
2022/09/10 05:12:02;;;;;;;22.23;15.95;;;14.50;99.90;;;;;;5091880;28;20094;-71
2022/09/10 05:14:28;;;;;;;;;;;14.60;99.90;;;;;;5100461;28;20039;-72
2022/09/10 05:16:56;;;;;;;16.55;13.40;;;14.60;99.90;;;;;;5111628;28;19923;-71
2022/09/10 05:19:22;;;;;;;18.73;15.82;;;14.60;99.90;;;;;;5108564;28;20040;-71
2022/09/10 05:21:49;;;;;;;18.83;14.73;;;14.60;99.90;;;;;;5090418;28;20499;-71
2022/09/10 05:24:16;;;;;;;14.98;13.38;;;14.60;99.90;;;;;;5092113;28;20491;-71
2022/09/10 05:26:43;;;;;;;21.35;15.40;;;14.50;99.90;;;;;;5096254;28;20414;-71
2022/09/10 05:29:10;;;;;;;18.75;14.93;;;14.60;99.90;;;;;;5106708;28;20104;-70
2022/09/10 05:31:37;;;;;;;20.42;14.43;;;14.60;99.90;;;;;;5111369;28;20048;-70
2022/09/10 05:34:04;;;;;;;19.20;14.75;;;14.60;99.90;;;;;;5079287;28;20085;-71
2022/09/10 05:36:31;;;;;;;21.30;15.38;;;14.60;99.90;;;;;;5076925;28;20048;-70
2022/09/10 05:38:59;;;;;;;18.65;15.02;;;14.70;99.90;;;;;;5110849;28;20097;-71
2022/09/10 05:41:27;;;;;;;17.00;14.55;;;14.70;99.90;;;;;;5107297;28;20040;-71
2022/09/10 05:43:54;;;;;;;18.17;14.98;;;14.70;99.90;;;;;;5109639;28;20044;-71
2022/09/10 05:46:23;;;;;;;15.63;13.93;;;14.70;99.90;;;;;;5106920;28;20051;-73
2022/09/10 05:48:52;;;;;;;19.02;14.50;;;14.70;99.90;;;;;;5108664;28;20055;-70
2022/09/10 05:51:20;;;;;;;19.10;13.20;;;14.70;99.90;;;;;;5079031;28;20085;-72
2022/09/10 05:53:48;;;;;;;15.90;13.80;;;14.70;99.90;;;;;;5091916;28;20226;-71
2022/09/10 05:56:15;;;;;;;24.42;14.70;;;14.70;99.90;;;;;;5091728;28;20050;-71
2022/09/10 05:58:44;;;;;;;17.63;13.70;;;14.80;99.90;;;;;;5075395;28;20048;-71
2022/09/10 06:01:11;;;;;;;17.10;14.63;;;14.80;99.90;;;;;;5087141;28;20051;-71
2022/09/10 06:03:39;;;;;;;17.70;13.82;;;14.80;99.90;;;;;;5088943;28;20381;-71
2022/09/10 06:06:06;;;;;;;15.77;13.50;;;14.80;99.90;;;;;;5092995;28;20055;-72
2022/09/10 06:08:34;;;;;;;16.27;14.60;;;14.80;99.90;;;;;;5106900;28;20048;-70
2022/09/10 06:11:06;;;;;;;18.63;13.73;;;14.80;99.90;;;;;;5092110;28;20097;-72
2022/09/10 06:13:33;;;;;;;15.38;13.77;;;14.80;99.90;;;;;;5108270;28;20440;-71
2022/09/10 06:16:00;;;;;;;17.25;15.32;;;14.90;99.90;;;;;;5108118;28;20055;-72
2022/09/10 06:18:28;;;;;;;19.05;15.73;;;14.90;99.90;;;;;;5073210;28;20048;-72
2022/09/10 06:21:05;;;;;;;18.40;14.95;;;14.90;99.90;;;;;;5076184;28;20051;-73
2022/09/10 06:23:32;;;;;;;18.90;15.63;;;14.90;99.90;;;;;;5090154;28;20044;-71
2022/09/10 06:26:07;;;;;;;17.02;14.73;;;14.90;99.90;;;;;;5093175;28;20092;-71
2022/09/10 06:28:34;;;;;;;17.00;15.07;;;14.90;99.90;;;;;;5078144;28;20052;-72
2022/09/10 06:31:04;;;;;;;18.90;13.82;;;14.90;99.90;;;;;;5091468;28;20046;-72
2022/09/10 06:33:32;;;;;;;17.05;15.25;;;14.90;99.90;;;;;;5074104;28;20518;-71
2022/09/10 06:35:59;;;;;;;17.95;14.75;;;15.00;99.90;;;;;;5091773;28;20381;-71
2022/09/10 06:38:32;;;;;;;19.40;15.70;;;15.00;99.90;;;;;;5106151;28;20067;-72
2022/09/10 06:41:03;;;;;;;18.85;15.95;;;15.00;99.90;;;;;;5095722;28;20055;-71
2022/09/10 06:43:35;;;;;;;18.52;16.13;;;15.10;99.90;;;;;;5103118;28;20036;-71
2022/09/10 06:46:08;;;;;;;18.42;16.25;;;15.10;99.90;;;;;;5094079;28;20055;-72
2022/09/10 06:48:59;;;;;;;22.52;15.88;;;15.10;99.90;;;;;;5068217;28;20126;-71
2022/09/10 06:51:26;;;;;;;18.63;13.98;;;15.10;99.90;;;;;;5101463;28;20044;-71
2022/09/10 06:53:53;;;;;;;20.02;16.55;;;15.10;99.90;;;;;;5113261;28;20076;-71
2022/09/10 06:56:20;;;;;;;15.90;14.13;;;15.20;99.90;;;;;;5112424;28;20036;-71
2022/09/10 06:58:47;;;;;;;16.52;14.80;;;15.20;99.90;;;;;;5099379;28;20048;-71
2022/09/10 07:01:16;;;;;;;16.33;14.27;;;15.20;99.90;;;;;;5097786;28;20439;-71
2022/09/10 07:03:43;;;;;;;17.42;15.38;;;15.20;99.90;;;;;;5062136;28;20044;-71
2022/09/10 07:06:12;;;;;;;18.50;14.75;;;15.30;99.90;;;;;;5094091;28;20048;-71
2022/09/10 07:08:39;;;;;;;22.13;18.00;;;15.30;99.90;;;;;;5094333;28;20101;-71
2022/09/10 07:11:10;;;;;;;19.88;15.02;;;15.40;99.90;;;;;;5095365;28;20772;-72
2022/09/10 07:13:37;;;;;;;17.92;15.32;;;15.40;99.90;;;;;;5065240;28;20075;-70
2022/09/10 07:16:04;;;;;;;18.02;14.85;;;15.50;99.90;;;;;;5105238;28;20044;-71
2022/09/10 07:18:32;;;;;;;19.30;17.17;;;15.60;99.90;;;;;;5093736;28;20043;-72
2022/09/10 07:21:07;;;;;;;28.75;22.55;;;15.60;99.90;;;;;;5112604;28;20051;-72
2022/09/10 07:23:34;;;;;;;30.98;24.92;;;15.70;99.90;;;;;;5095036;28;20058;-70
2022/09/10 07:26:05;;;;;;;19.75;15.60;;;15.70;99.90;;;;;;5099850;28;20825;-71
2022/09/10 07:28:32;;;;;;;16.45;14.68;;;15.80;99.90;;;;;;5071545;28;20059;-70
2022/09/10 07:30:59;;;;;;;18.55;14.35;;;15.80;99.90;;;;;;5110969;28;20047;-70
2022/09/10 07:33:26;;;;;;;20.30;14.65;;;15.80;99.90;;;;;;5079984;28;20399;-70
2022/09/10 07:35:52;;;;;;;22.33;15.95;;;15.80;99.90;;;;;;5078318;28;20097;-71
2022/09/10 07:38:19;;;;;;;18.30;14.77;;;15.80;99.90;;;;;;5108546;28;20044;-71
2022/09/10 07:40:47;;;;;;;18.35;15.25;;;15.90;99.90;;;;;;5103018;28;20052;-71
2022/09/10 07:43:14;;;;;;;17.90;15.73;;;15.90;99.90;;;;;;5096597;28;20101;-70
2022/09/10 07:45:41;;;;;;;18.00;13.70;;;15.90;99.90;;;;;;5097346;28;20075;-70
2022/09/10 07:48:10;;;;;;;18.50;14.88;;;16.00;99.90;;;;;;5063985;28;20074;-69
2022/09/10 07:50:38;;;;;;;20.15;15.45;;;16.00;99.90;;;;;;5059124;28;20403;-69
2022/09/10 07:53:05;;;;;;;16.45;13.55;;;16.10;99.90;;;;;;5092396;28;20048;-69
2022/09/10 07:55:32;;;;;;;21.92;16.02;;;16.10;99.90;;;;;;5063500;28;20082;-69
2022/09/10 07:57:59;;;;;;;16.50;14.80;;;16.20;99.90;;;;;;5098142;28;20051;-69
2022/09/10 08:00:26;;;;;;;17.88;14.95;;;16.10;99.90;;;;;;5077253;28;20097;-69
2022/09/10 08:02:53;;;;;;;19.00;15.70;;;16.10;99.90;;;;;;5097688;28;20449;-69
2022/09/10 08:05:19;;;;;;;21.02;15.55;;;16.10;99.90;;;;;;5095720;28;20445;-69
2022/09/10 08:07:46;;;;;;;22.27;15.27;;;16.20;99.90;;;;;;5102050;28;20062;-69
2022/09/10 08:10:13;;;;;;;18.92;14.63;;;16.30;99.90;;;;;;5097889;28;20059;-69
2022/09/10 08:12:40;;;;;;;16.27;14.57;;;16.30;99.90;;;;;;5102201;28;20101;-69
2022/09/10 08:15:08;;;;;;;20.35;14.27;;;16.40;99.90;;;;;;5104882;28;20055;-69
2022/09/10 08:17:37;;;;;;;18.85;16.23;;;16.40;99.90;;;;;;5093912;28;20105;-69
2022/09/10 08:20:06;;;;;;;18.65;15.43;;;16.40;99.90;;;;;;5079281;28;20479;-69
2022/09/10 08:22:34;;;;;;;22.27;15.40;;;16.40;99.90;;;;;;5064221;28;20135;-69
2022/09/10 08:25:01;;;;;;;24.35;15.50;;;16.40;99.90;;;;;;5103446;28;20036;-69
2022/09/10 08:27:28;;;;;;;19.52;16.52;;;16.40;99.90;;;;;;5083048;28;20108;-69
2022/09/10 08:29:56;;;;;;;19.60;14.60;;;16.50;99.90;;;;;;5092324;28;20040;-69
2022/09/10 08:32:23;;;;;;;18.98;15.93;;;16.50;99.90;;;;;;5107533;28;20040;-69
2022/09/10 08:34:51;;;;;;;20.77;15.35;;;16.60;99.90;;;;;;5105268;28;20047;-69
2022/09/10 08:37:18;;;;;;;18.63;15.23;;;16.60;99.90;;;;;;5094818;28;20091;-69
2022/09/10 08:39:45;;;;;;;19.67;14.77;;;16.70;99.90;;;;;;5092824;28;20048;-69
2022/09/10 08:42:25;;;;;;;16.95;13.65;;;16.80;99.90;;;;;;5081342;28;20058;-68
2022/09/10 08:45:12;;;;;;;15.23;13.10;;;16.90;99.90;;;;;;5095849;28;20471;-69
2022/09/10 08:47:54;;;;;;;21.05;14.13;;;17.10;99.90;;;;;;5105021;28;20044;-69
2022/09/10 08:50:40;;;;;;;16.88;13.85;;;17.10;99.90;;;;;;5092485;28;20457;-70
2022/09/10 08:53:24;;;;;;;18.58;13.70;;;17.20;99.90;;;;;;5105586;28;20044;-71
2022/09/10 08:55:57;;;;;;;16.77;12.60;;;17.20;99.90;;;;;;5092024;28;20048;-67
2022/09/10 08:59:03;;;;;;;17.92;13.70;;;17.20;99.90;;;;;;5080994;28;20047;-68
2022/09/10 09:01:42;;;;;;;14.13;11.52;;;17.40;99.90;;;;;;5000210;28;20046;-63
2022/09/10 09:04:27;;;;;;;41.92;37.83;;;17.40;99.90;;;;;;5053336;28;20056;-66
2022/09/10 09:06:59;;;;;;;18.75;13.38;;;17.60;99.90;;;;;;5087400;28;20402;-67
2022/09/10 09:09:26;;;;;;;14.15;12.70;;;17.70;99.90;;;;;;5091250;28;20046;-67
2022/09/10 09:12:17;;;;;;;47.17;40.33;;;17.80;99.90;;;;;;5094251;28;20039;-72
2022/09/10 09:15:02;;;;;;;25.65;20.88;;;17.90;99.90;;;;;;5097540;28;20052;-67
2022/09/10 09:17:52;;;;;;;15.35;13.75;;;17.90;99.90;;;;;;5100928;28;20079;-67
2022/09/10 09:21:05;;;;;;;15.52;13.13;;;17.70;99.90;;;;;;5091347;28;20549;-67
2022/09/10 09:23:49;;;;;;;13.95;12.13;;;17.80;99.90;;;;;;5106487;28;20449;-70
2022/09/10 09:26:36;;;;;;;12.95;11.48;;;17.90;99.90;;;;;;5080648;28;20079;-70
2022/09/10 09:29:17;;;;;;;15.85;12.93;;;18.00;99.90;;;;;;5102832;28;20492;-70
2022/09/10 09:31:49;;;;;;;16.63;13.00;;;18.10;99.90;;;;;;5059815;28;20390;-70
2022/09/10 09:34:20;;;;;;;15.85;12.43;;;18.20;99.90;;;;;;5074744;28;20044;-70
2022/09/10 09:36:54;;;;;;;13.13;11.77;;;18.20;99.90;;;;;;5091581;28;20090;-70
2022/09/10 09:39:35;;;;;;;12.95;11.45;;;18.20;99.90;;;;;;5090634;28;20055;-70
2022/09/10 09:42:18;;;;;;;17.27;12.27;;;18.40;99.90;;;;;;5075659;28;20127;-70
2022/09/10 09:45:15;;;;;;;15.00;11.75;;;18.40;99.90;;;;;;5092803;28;20051;-70
2022/09/10 09:47:44;;;;;;;14.60;12.38;;;18.50;99.90;;;;;;5102588;28;20048;-70
2022/09/10 09:50:12;;;;;;;14.68;12.57;;;18.40;99.90;;;;;;5074123;28;20134;-69
2022/09/10 09:52:39;;;;;;;15.48;11.57;;;18.40;99.90;;;;;;5073628;28;20047;-67
2022/09/10 09:55:11;;;;;;;14.70;11.25;;;18.50;99.90;;;;;;5090909;28;20044;-65
2022/09/10 09:57:41;;;;;;;17.02;12.85;;;18.60;99.90;;;;;;5067324;28;20039;-69
2022/09/10 10:00:34;;;;;;;14.45;12.75;;;18.70;99.90;;;;;;5089440;28;20055;-67
2022/09/10 10:03:13;;;;;;;17.55;13.35;;;18.90;99.90;;;;;;5095317;28;20048;-66
2022/09/10 10:05:41;;;;;;;12.82;10.93;;;18.90;99.90;;;;;;5098122;28;20104;-67
2022/09/10 10:08:31;;;;;;;15.10;10.73;;;18.90;99.90;;;;;;5096594;28;20044;-69
2022/09/10 10:10:58;;;;;;;14.30;10.18;;;19.00;99.90;;;;;;5091785;28;20071;-67
2022/09/10 10:13:33;;;;;;;12.50;9.80;;;19.00;99.90;;;;;;5076294;28;20044;-70
2022/09/10 10:16:18;;;;;;;31.92;25.95;;;19.10;99.90;;;;;;5062849;28;20063;-71
2022/09/10 10:18:46;;;;;;;45.50;40.22;;;19.30;99.90;;;;;;5107967;28;20437;-70
2022/09/10 10:21:14;;;;;;;19.90;13.27;;;19.30;99.90;;;;;;5091798;28;20047;-73
2022/09/10 10:23:41;;;;;;;11.88;10.27;;;19.30;99.90;;;;;;5098337;28;20128;-73
2022/09/10 10:26:19;;;;;;;13.07;9.52;;;19.20;99.90;;;;;;5115118;28;20467;-73
2022/09/10 10:28:47;;;;;;;11.18;8.43;;;19.20;99.90;;;;;;5094911;28;20051;-77
2022/09/10 10:31:14;;;;;;;10.27;8.57;;;19.20;99.90;;;;;;5095816;28;20044;-64
2022/09/10 10:33:46;;;;;;;13.00;7.45;;;19.20;99.90;;;;;;5097682;28;20047;-64
2022/09/10 10:36:37;;;;;;;13.57;7.15;;;19.20;99.90;;;;;;5112774;28;20125;-70
2022/09/10 10:39:27;;;;;;;11.05;8.23;;;19.40;99.90;;;;;;5103654;28;20047;-70
2022/09/10 10:42:15;;;;;;;11.63;8.15;;;19.40;99.90;;;;;;5087307;28;20044;-65
2022/09/10 10:44:55;;;;;;;12.27;8.95;;;19.20;99.90;;;;;;5099342;28;20039;-65
2022/09/10 10:47:45;;;;;;;39.13;34.95;;;19.30;99.90;;;;;;5097200;28;20047;-73
2022/09/10 10:50:17;;;;;;;16.08;13.52;;;19.30;99.90;;;;;;5100858;28;20044;-73
2022/09/10 10:53:06;;;;;;;10.68;7.70;;;19.30;99.90;;;;;;5105446;28;20043;-73
2022/09/10 10:55:51;;;;;;;48.55;43.63;;;19.30;99.90;;;;;;5104243;28;20039;-70
2022/09/10 10:58:33;;;;;;;16.77;13.93;;;19.30;99.90;;;;;;5098871;28;20036;-74
2022/09/10 11:01:06;;;;;;;12.73;7.25;;;19.30;99.90;;;;;;5096829;28;20158;-74
2022/09/10 11:03:41;;;;;;;11.70;6.53;;;19.40;99.90;;;;;;5088264;28;20101;-74
2022/09/10 11:06:13;;;;;;;10.98;6.20;;;19.60;99.90;;;;;;5094726;28;20492;-74
2022/09/10 11:08:56;;;;;;;10.98;4.88;;;19.70;99.90;;;;;;5100381;28;20116;-74
2022/09/10 11:11:23;;;;;;;8.15;5.00;;;19.90;99.90;;;;;;5100133;28;20507;-70
2022/09/10 11:13:55;;;;;;;51.75;45.63;;;19.90;99.90;;;;;;5104634;28;20044;-73
2022/09/10 11:16:23;;;;;;;86.97;78.15;;;20.00;99.90;;;;;;5114834;28;20120;-73
2022/09/10 11:19:11;;;;;;;12.43;9.45;;;20.00;99.90;;;;;;5112607;28;20059;-70
2022/09/10 11:21:48;;;;;;;8.90;5.82;;;20.10;99.90;;;;;;5082789;28;20040;-70
2022/09/10 11:24:51;;;;;;;9.32;4.43;;;20.10;99.90;;;;;;5095740;28;20047;-70
2022/09/10 11:27:21;;;;;;;6.65;3.50;;;20.20;99.90;;;;;;5051062;28;20102;-69
2022/09/10 11:29:53;;;;;;;7.43;3.80;;;20.30;99.90;;;;;;5080636;28;20093;-69
2022/09/10 11:32:41;;;;;;;6.80;2.90;;;20.40;99.90;;;;;;5092711;28;20044;-69
2022/09/10 11:35:21;;;;;;;8.13;3.58;;;20.50;99.90;;;;;;5092634;28;20052;-71
2022/09/10 11:38:02;;;;;;;7.78;3.63;;;20.50;99.90;;;;;;5076295;28;20097;-72
2022/09/10 11:40:46;;;;;;;7.82;3.05;;;20.40;99.90;;;;;;5103422;28;20452;-69
2022/09/10 11:43:18;;;;;;;6.57;3.60;;;20.40;99.90;;;;;;5104999;28;20047;-66
2022/09/10 11:45:53;;;;;;;8.55;3.95;;;20.50;99.90;;;;;;5086387;28;20048;-75
2022/09/10 11:48:40;;;;;;;6.40;3.38;;;20.70;99.90;;;;;;5094095;28;20085;-66
2022/09/10 11:51:25;;;;;;;7.28;3.03;;;20.80;99.90;;;;;;5067782;28;20484;-75
2022/09/10 11:53:52;;;;;;;8.77;3.80;;;20.70;99.90;;;;;;5060426;28;20103;-71
2022/09/10 11:56:41;;;;;;;8.88;3.60;;;20.60;99.90;;;;;;5076077;28;20040;-74
2022/09/10 11:59:29;;;;;;;6.20;2.78;;;20.40;99.90;;;;;;5097538;28;20071;-75
2022/09/10 12:02:24;;;;;;;6.20;2.80;;;20.20;99.90;;;;;;5095098;28;20059;-72
2022/09/10 12:05:06;;;;;;;4.93;2.95;;;20.10;99.90;;;;;;5104970;28;20130;-75
2022/09/10 12:08:02;;;;;;;6.38;3.05;;;20.00;99.90;;;;;;5099685;28;20068;-73
2022/09/10 12:10:52;;;;;;;6.20;3.22;;;20.00;99.90;;;;;;5078589;28;20040;-75
2022/09/10 12:13:18;;;;;;;6.30;3.03;;;20.10;99.90;;;;;;5092116;28;20043;-75
2022/09/10 12:15:51;;;;;;;7.28;3.30;;;20.10;99.90;;;;;;5095931;28;20205;-75
2022/09/10 12:18:21;;;;;;;6.13;2.83;;;20.10;99.90;;;;;;5101157;28;20079;-74
2022/09/10 12:20:51;;;;;;;;;;;20.10;99.90;;;;;;5081323;28;20052;-77
2022/09/10 12:23:35;;;;;;;8.02;3.30;;;20.10;99.90;;;;;;5091995;28;20322;-75
2022/09/10 12:26:15;;;;;;;24.17;19.95;;;20.10;99.90;;;;;;5110490;28;20039;-74
2022/09/10 12:28:42;;;;;;;12.68;9.60;;;20.00;99.90;;;;;;5086356;28;20048;-75
2022/09/10 12:31:10;;;;;;;12.73;6.38;;;20.00;99.90;;;;;;5092139;28;20048;-74
2022/09/10 12:33:43;;;;;;;5.15;3.80;;;20.10;99.90;;;;;;5090430;28;20040;-68
2022/09/10 12:36:12;;;;;;;8.02;4.00;;;20.30;99.90;;;;;;5099435;28;20052;-72
2022/09/10 12:38:47;;;;;;;8.30;3.90;;;20.30;99.90;;;;;;5100065;28;20491;-73
2022/09/10 12:41:23;;;;;;;5.65;4.07;;;20.30;99.90;;;;;;5111924;28;20043;-78
2022/09/10 12:43:55;;;;;;;5.82;3.47;;;20.30;99.90;;;;;;5097289;28;20101;-70
2022/09/10 12:46:24;;;;;;;9.10;3.38;;;20.20;99.90;;;;;;5093264;28;20040;-71
2022/09/10 12:48:54;;;;;;;31.80;28.60;;;20.20;99.90;;;;;;5089852;28;20089;-63
2022/09/10 12:51:50;;;;;;;8.13;7.03;;;20.30;99.90;;;;;;5102530;28;20062;-69
2022/09/10 12:54:48;;;;;;;7.60;3.88;;;20.40;99.90;;;;;;5112534;28;20544;-69
2022/09/10 12:57:27;;;;;;;6.03;3.08;;;20.50;99.90;;;;;;5109022;28;20100;-69